Latest Coastal Weather Observations for Coles Point

IDS60701

Issued at 10:21 am CST Thursday 28 July 2016 (issued every 10 minutes, with the page automatically refreshed every 10 minutes)

About coastal observations | Map of coastal stations | Coastal observations for SA | Marine services | Other Formats
Station Details ID: 018191 Name: COLES POINT Lat: -34.37 Lon: 135.37 Height: 28.0 m
Data from the previous 72 hours. | See also: Recent months at Coles Point
Date/Time
CST
Temp
°C
Wind Pressure Rain since
9am
mm
Weather Cloud Vis
km
Sea
Height
m
Swell
Dir  Spd
kts
Gust
kts
hPa Trend Height
m
Period
s
Dir
28/10:00am 12.9 NW 7 10 1029.8 - 0.0 - - - - - - -
28/09:30am 13.1 W 6 9 1029.7 - 0.0 - - - - - - -
28/09:00am 12.7 NW 6 8 1029.4 - 0.0 - - - - - - -
28/08:30am 12.4 W 6 9 1029.1 - 0.0 - - - - - - -
28/08:00am 12.2 W 5 8 1029.1 - 0.0 - - - - - - -
28/07:30am 12.2 W 8 11 1028.9 - 0.0 - - - - - - -
28/07:00am 12.3 W 5 8 1028.6 - 0.0 - - - - - - -
28/06:30am 12.3 W 5 8 1028.5 - 0.0 - - - - - - -
28/06:00am 12.3 WSW 4 7 1028.0 - 0.0 - - - - - - -
28/05:30am 12.1 W 4 9 1027.9 - 0.0 - - - - - - -
28/05:00am 12.4 W 7 11 1027.7 - 0.0 - - - - - - -
28/04:30am 12.6 W 6 10 1027.6 - 0.0 - - - - - - -
28/04:00am 12.6 WSW 8 12 1027.7 - 0.0 - - - - - - -
28/03:30am 12.2 W 5 8 1027.8 - 0.0 - - - - - - -
28/03:00am 12.0 W 7 11 1027.8 - 0.0 - - - - - - -
28/02:30am 12.6 W 8 12 1028.1 - 0.0 - - - - - - -
28/02:00am 13.0 WSW 11 15 1028.2 - 0.0 - - - - - - -
28/01:30am 12.9 W 8 13 1028.1 - 0.0 - - - - - - -
28/01:00am 12.4 WNW 7 10 1028.0 - 0.0 - - - - - - -
28/12:30am 11.9 WNW 5 6 1028.0 - 0.0 - - - - - - -
28/12:00am 12.3 W 6 9 1028.1 - 0.0 - - - - - - -
 
Date/Time
CST
Temp
°C
Wind Pressure Rain since
9am
mm
Weather Cloud Vis
km
Sea
Height
m
Swell
Dir  Spd
kts
Gust
kts
hPa Trend Height
m
Period
s
Dir
27/11:30pm 12.1 W 8 11 1028.0 - 0.0 - - - - - - -
27/11:00pm 11.9 WNW 8 10 1028.1 - 0.0 - - - - - - -
27/10:30pm 12.4 WNW 9 11 1028.1 - 0.0 - - - - - - -
27/10:00pm 12.3 W 5 9 1028.1 - 0.0 - - - - - - -
27/09:30pm 12.1 W 5 6 1028.2 - 0.0 - - - - - - -
27/09:00pm 12.0 WSW 6 8 1028.2 - 0.0 - - - - - - -
27/08:30pm 10.9 NW 6 7 1028.4 - 0.0 - - - - - - -
27/08:00pm 11.4 NW 7 10 1028.3 - 0.0 - - - - - - -
27/07:30pm 11.7 WNW 10 11 1028.3 - 0.0 - - - - - - -
27/07:00pm 12.4 W 7 12 1028.1 - 0.0 - - - - - - -
27/06:30pm 12.4 WSW 7 10 1027.8 - 0.0 - - - - - - -
27/06:00pm 12.3 W 7 9 1027.6 - 0.0 - - - - - - -
27/05:30pm 12.1 NW 5 6 1027.3 - 0.0 - - - - - - -
27/05:00pm 12.4 W 4 6 1027.1 - 0.0 - - - - - - -
27/04:30pm 12.6 WSW 6 8 1027.2 - 0.0 - - - - - - -
27/04:00pm 12.6 W 6 9 1027.1 - 0.0 - - - - - - -
27/03:30pm 12.8 WSW 8 10 1027.0 - 0.0 - - - - - - -
27/03:00pm 13.1 WSW 10 13 1026.7 - 0.0 - - - - - - -
27/02:30pm 12.8 WSW 8 11 1026.5 - 0.0 - - - - - - -
27/02:00pm 12.9 WSW 8 11 1026.3 - 0.0 - - - - - - -
27/01:30pm 13.0 WSW 8 11 1026.3 - 0.0 - - - - - - -
27/01:00pm 13.5 WSW 12 15 1026.3 - 0.0 - - - - - - -
27/12:30pm 13.3 WSW 9 12 1026.3 - 0.0 - - - - - - -
27/12:00pm 13.1 WSW 10 13 1026.3 - 0.0 - - - - - - -
27/11:30am 13.4 SW 9 12 1026.5 - 0.0 - - - - - - -
27/11:00am 13.4 SW 10 13 1026.3 - 0.0 - - - - - - -
27/10:30am 13.2 SW 10 14 1026.3 - 0.0 - - - - - - -
27/10:00am 12.8 SW 7 9 1026.0 - 0.0 - - - - - - -
27/09:30am 12.8 SW 8 10 1025.5 - 0.0 - - - - - - -
27/09:00am 12.4 SSW 6 9 1024.8 - 2.8 - - - - - - -
27/08:30am 11.9 SSW 8 11 1024.4 - 2.8 - - - - - - -
27/08:00am 11.6 SSW 9 13 1024.1 - 2.8 - - - - - - -
27/07:30am 11.9 SSW 11 16 1023.7 - 2.8 - - - - - - -
27/07:00am 11.7 SSW 10 14 1023.0 - 2.8 - - - - - - -
27/06:30am 11.9 SW 12 16 1022.6 - 2.8 - - - - - - -
27/06:00am 11.8 SSW 13 16 1022.2 - 2.8 - - - - - - -
27/05:30am 12.1 SSW 12 15 1021.5 - 2.8 - - - - - - -
27/05:00am 11.9 SSW 12 17 1021.2 - 2.8 - - - - - - -
27/04:30am 12.0 SSW 15 20 1020.7 - 2.8 - - - - - - -
27/04:00am 11.8 SSW 12 17 1020.6 - 2.8 - - - - - - -
27/03:30am 11.8 SW 17 22 1020.2 - 2.8 - - - - - - -
27/03:00am 12.0 SW 17 22 1020.2 - 2.8 - - - - - - -
27/02:30am 12.2 SW 18 23 1020.0 - 2.8 - - - - - - -
27/02:00am 12.2 SW 19 27 1019.8 - 2.8 - - - - - - -
27/01:30am 11.9 SW 19 27 1019.6 - 2.8 - - - - - - -
27/01:00am 12.3 SW 20 26 1019.0 - 2.8 - - - - - - -
27/12:45am 12.2 SW 19 29 1018.7 - 2.8 - - - - - - -
27/12:30am 12.3 SW 20 27 1018.5 - 2.8 - - - - - - -
27/12:00am 12.4 WSW 17 23 1017.9 - 2.8 - - - - - - -
 
Date/Time
CST
Temp
°C
Wind Pressure Rain since
9am
mm
Weather Cloud Vis
km
Sea
Height
m
Swell
Dir  Spd
kts
Gust
kts
hPa Trend Height
m
Period
s
Dir
26/11:40pm 11.8 SW 20 31 1017.7 - 2.8 - - - - - - -
26/11:30pm 11.4 SW 21 28 1017.7 - 2.8 - - - - - - -
26/11:00pm 12.0 SW 17 23 1017.0 - 2.8 - - - - - - -
26/10:30pm 11.8 WSW 19 27 1016.6 - 2.8 - - - - - - -
26/10:02pm 11.7 SW 18 28 1016.2 - 2.8 - - - - - - -
26/10:00pm 11.8 SW 19 28 1016.2 - 2.8 - - - - - - -
26/09:46pm 13.1 SW 18 30 1016.0 - 2.6 - - - - - - -
26/09:30pm 12.8 WSW 17 23 1015.8 - 2.6 - - - - - - -
26/09:00pm 12.4 WSW 21 29 1015.6 - 2.6 - - - - - - -
26/08:37pm 12.6 WSW 17 27 1015.2 - 2.6 - - - - - - -
26/08:30pm 12.9 WSW 17 23 1014.9 - 2.6 - - - - - - -
26/08:12pm 12.9 WSW 20 33 1014.7 - 2.6 - - - - - - -
26/08:00pm 12.9 WSW 18 23 1014.6 - 2.6 - - - - - - -
26/07:30pm 12.8 WSW 19 28 1013.8 - 2.6 - - - - - - -
26/07:07pm 13.4 WSW 22 34 1013.4 - 2.6 - - - - - - -
26/07:00pm 13.3 WSW 22 31 1013.2 - 2.6 - - - - - - -
26/06:30pm 12.7 WSW 18 24 1012.6 - 2.6 - - - - - - -
26/06:01pm 12.2 WSW 21 31 1012.3 - 2.6 - - - - - - -
26/06:00pm 12.4 WSW 20 28 1012.3 - 2.6 Recent precip. - - - - - -
26/05:30pm 12.0 WSW 23 29 1011.7 - 2.4 - - - - - - -
26/05:19pm 12.6 W 21 32 1011.6 - 2.0 - - - - - - -
26/05:00pm 12.9 W 22 30 1011.2 - 1.8 - - - - - - -
26/04:30pm 13.5 W 21 33 1010.6 - 1.4 - - - - - - -
26/04:00pm 14.2 W 22 32 1010.5 - 1.4 - - - - - - -
26/03:30pm 14.1 W 24 35 1010.6 - 1.4 - - - - - - -
26/03:00pm 14.2 WNW 21 34 1010.8 - 1.4 - - - - - - -
26/02:30pm 14.5 WNW 25 36 1011.0 - 1.4 - - - - - - -
26/02:04pm 14.0 WNW 24 36 1011.1 - 1.4 - - - - - - -
26/02:00pm 14.0 WNW 24 33 1011.1 - 1.4 - - - - - - -
26/01:31pm 12.4 WNW 21 32 1011.6 - 1.4 - - - - - - -
26/01:30pm 12.4 WNW 22 32 1011.6 - 1.4 - - - - - - -
26/01:08pm 12.3 WNW 23 33 1012.2 - 1.0 - - - - - - -
26/01:00pm 12.4 WNW 25 31 1012.4 - 1.0 - - - - - - -
26/12:30pm 11.9 WNW 25 33 1013.2 - 0.8 - - - - - - -
26/12:02pm 12.5 WNW 23 33 1013.5 - 0.6 - - - - - - -
26/12:00pm 12.6 WNW 24 33 1013.4 - 0.6 Recent precip. - - - - - -
26/11:30am 11.8 WNW 21 32 1013.9 - 0.4 - - - - - - -
26/11:11am 13.2 WNW 18 31 1014.2 - 0.0 - - - - - - -
26/11:00am 12.8 WNW 18 26 1014.3 - 0.0 - - - - - - -
26/10:40am 12.8 WNW 19 29 1014.9 - 0.0 - - - - - - -
26/10:30am 13.1 WNW 17 24 1014.6 - 0.0 - - - - - - -
26/10:00am 13.0 WNW 18 25 1015.0 - 0.0 - - - - - - -
26/09:30am 12.3 WNW 19 27 1015.2 - 0.0 - - - - - - -
26/09:00am 12.4 WNW 19 28 1015.2 - 2.8 - - - - - - -
26/08:30am 12.1 WNW 17 24 1015.3 - 2.8 - - - - - - -
26/08:00am 12.1 WNW 16 23 1015.6 - 2.8 - - - - - - -
26/07:30am 12.1 WNW 16 22 1015.4 - 2.8 - - - - - - -
26/07:00am 11.9 WNW 13 19 1015.4 - 2.8 - - - - - - -
26/06:30am 11.8 WNW 14 19 1015.6 - 2.8 - - - - - - -
26/06:00am 11.7 WNW 12 17 1015.9 - 2.8 - - - - - - -
26/05:30am 11.7 W 11 16 1016.3 - 2.8 - - - - - - -
26/05:00am 11.1 W 11 16 1016.2 - 2.8 - - - - - - -
26/04:30am 11.4 W 12 17 1016.6 - 2.8 - - - - - - -
26/04:00am 11.0 W 11 16 1017.0 - 2.8 - - - - - - -
26/03:30am 11.2 W 11 17 1017.2 - 2.8 - - - - - - -
26/03:00am 10.6 W 10 14 1017.5 - 2.8 - - - - - - -
26/02:30am 10.7 W 11 17 1017.7 - 2.8 - - - - - - -
26/02:00am 10.9 WSW 11 15 1018.0 - 2.8 - - - - - - -
26/01:30am 10.8 WSW 12 17 1018.4 - 2.8 - - - - - - -
26/01:00am 10.0 WNW 9 13 1018.6 - 2.8 - - - - - - -
26/12:30am 10.5 WSW 12 16 1018.8 - 2.8 - - - - - - -
26/12:00am 11.2 WSW 11 15 1018.8 - 2.8 - - - - - - -
 
Date/Time
CST
Temp
°C
Wind Pressure Rain since
9am
mm
Weather Cloud Vis
km
Sea
Height
m
Swell
Dir  Spd
kts
Gust
kts
hPa Trend Height
m
Period
s
Dir
25/11:30pm 10.8 SW 13 17 1018.9 - 2.8 - - - - - - -
25/11:00pm 10.9 WSW 12 17 1019.0 - 2.8 - - - - - - -
25/10:30pm 11.1 WSW 13 18 1019.0 - 2.8 - - - - - - -
25/10:00pm 11.1 SW 15 19 1018.9 - 2.8 - - - - - - -
25/09:30pm 11.3 WSW 14 19 1018.7 - 2.8 - - - - - - -
25/09:00pm 11.3 WSW 14 20 1018.7 - 2.8 - - - - - - -
25/08:30pm 11.6 SW 14 19 1018.6 - 2.8 - - - - - - -
25/08:00pm 11.6 SW 15 20 1018.3 - 2.8 - - - - - - -
25/07:30pm 11.3 SW 17 21 1018.0 - 2.8 - - - - - - -
25/07:00pm 11.7 SW 16 23 1017.8 - 2.8 - - - - - - -
25/06:30pm 12.1 WSW 20 28 1017.4 - 2.8 - - - - - - -
25/06:00pm 12.2 WSW 17 24 1016.9 - 2.8 - - - - - - -
25/05:30pm 12.1 WSW 16 20 1016.6 - 2.8 - - - - - - -
25/05:00pm 11.6 WSW 18 23 1016.5 - 2.8 - - - - - - -
25/04:30pm 12.4 WSW 17 23 1016.0 - 2.8 - - - - - - -
25/04:00pm 11.6 SW 16 23 1015.7 - 2.8 - - - - - - -
25/03:30pm 12.8 WSW 18 24 1015.5 - 2.8 - - - - - - -
25/03:00pm 12.4 SW 19 26 1015.3 - 2.8 Recent precip. - - - - - -
25/02:30pm 12.6 WSW 22 35 1015.1 - 2.6 - - - - - - -
25/02:02pm 13.9 W 18 29 1014.6 - 2.6 - - - - - - -
25/02:00pm 13.7 W 17 25 1014.6 - 2.6 - - - - - - -
25/01:37pm 13.4 W 17 28 1014.7 - 2.4 - - - - - - -
25/01:30pm 13.1 W 21 29 1014.8 - 2.4 - - - - - - -
25/01:00pm 13.7 W 21 35 1015.1 - 0.4 - - - - - - -
25/12:32pm 15.0 WNW 18 28 1015.3 - 0.4 - - - - - - -
25/12:30pm 15.5 WNW 17 25 1015.3 - 0.4 - - - - - - -
25/12:02pm 14.8 WNW 19 32 1015.8 - 0.4 - - - - - - -
25/12:00pm 14.7 W 19 27 1015.8 - 0.4 - - - - - - -
25/11:36am 14.6 WNW 20 31 1016.0 - 0.4 - - - - - - -
25/11:30am 14.5 WNW 20 28 1016.0 - 0.4 - - - - - - -
25/11:00am 12.9 WNW 18 28 1016.0 - 0.4 - - - - - - -
25/10:30am 14.0 WNW 21 31 1015.9 - 0.0 - - - - - - -
25/10:29am 14.1 WNW 20 31 1015.8 - 0.0 - - - - - - -

Other Formats:

Comma delimited format used in spreadsheet applications
http://www.bom.gov.au/fwo/IDS60701/IDS60701.94658.axf

JavaScript Object Notation format (JSON) in row-major order
http://www.bom.gov.au/fwo/IDS60701/IDS60701.94658.json